createdAt,value
2022-08-11T00:01:14.862Z,22.34
2022-08-11T00:03:48.205Z,22.29
2022-08-11T00:06:24.324Z,22.24
2022-08-11T00:08:53.126Z,22.19
2022-08-11T00:11:29.921Z,22.13
2022-08-11T00:13:58.745Z,22.08
2022-08-11T00:16:27.358Z,22.06
2022-08-11T00:18:57.068Z,22.03
2022-08-11T00:22:02.003Z,21.99
2022-08-11T00:24:17.579Z,21.92
2022-08-11T00:26:51.065Z,21.88
2022-08-11T00:29:20.878Z,21.84
2022-08-11T00:31:52.126Z,21.80
2022-08-11T00:34:23.637Z,21.76
2022-08-11T00:36:54.519Z,21.75
2022-08-11T00:39:27.231Z,21.75
2022-08-11T00:42:12.007Z,21.73
2022-08-11T00:44:51.160Z,21.70
2022-08-11T00:47:28.416Z,21.66
2022-08-11T00:50:05.082Z,21.62
2022-08-11T00:52:58.837Z,21.59
2022-08-11T00:55:55.718Z,21.55
2022-08-11T00:59:26.422Z,21.52
2022-08-11T01:02:15.611Z,21.47
2022-08-11T01:05:25.280Z,21.44
2022-08-11T01:08:21.237Z,21.40
2022-08-11T01:11:23.271Z,21.35
2022-08-11T01:14:34.494Z,21.28
2022-08-11T01:17:35.878Z,21.19
2022-08-11T01:20:48.517Z,21.13
2022-08-11T01:23:57.723Z,21.07
2022-08-11T01:27:02.481Z,21.03
2022-08-11T01:30:22.195Z,21.02
2022-08-11T01:33:23.832Z,20.95
2022-08-11T01:36:28.911Z,20.91
2022-08-11T01:39:39.989Z,20.89
2022-08-11T01:43:03.250Z,20.87
2022-08-11T01:45:39.235Z,20.82
2022-08-11T01:48:15.942Z,20.81
2022-08-11T01:50:58.702Z,20.77
2022-08-11T01:53:40.212Z,20.75
2022-08-11T01:56:24.418Z,20.75
2022-08-11T01:59:10.316Z,20.76
2022-08-11T02:02:05.829Z,20.76
2022-08-11T02:04:39.689Z,20.69
2022-08-11T02:07:19.230Z,20.67
2022-08-11T02:10:26.866Z,20.69
2022-08-11T02:13:15.000Z,20.67
2022-08-11T02:15:51.384Z,20.66
2022-08-11T02:18:48.959Z,20.70
2022-08-11T02:21:43.116Z,20.70
2022-08-11T02:24:19.002Z,20.69
2022-08-11T02:26:51.580Z,20.68
2022-08-11T02:29:31.053Z,20.63
2022-08-11T02:32:37.904Z,20.59
2022-08-11T02:35:19.028Z,20.56
2022-08-11T02:38:07.440Z,20.53
2022-08-11T02:40:44.237Z,20.48
2022-08-11T02:43:30.405Z,20.46
2022-08-11T02:46:19.142Z,20.45
2022-08-11T02:49:14.809Z,20.40
2022-08-11T02:51:55.230Z,20.35
2022-08-11T02:54:29.677Z,20.32
2022-08-11T02:57:05.389Z,20.29
2022-08-11T02:59:53.752Z,20.27
2022-08-11T03:02:55.972Z,20.24
2022-08-11T03:05:38.915Z,20.20
2022-08-11T03:08:18.750Z,20.20
2022-08-11T03:11:15.474Z,20.17
2022-08-11T03:14:04.884Z,20.13
2022-08-11T03:16:46.462Z,20.10
2022-08-11T03:19:24.285Z,20.06
2022-08-11T03:22:06.285Z,20.00
2022-08-11T03:24:41.977Z,19.94
2022-08-11T03:27:13.112Z,19.88
2022-08-11T03:29:45.907Z,19.84
2022-08-11T03:32:27.262Z,19.82
2022-08-11T03:35:01.412Z,19.81
2022-08-11T03:37:51.955Z,19.79
2022-08-11T03:40:59.589Z,19.73
2022-08-11T03:43:58.029Z,19.63
2022-08-11T03:46:39.685Z,19.57
2022-08-11T03:49:19.306Z,19.52
2022-08-11T03:51:55.285Z,19.50
2022-08-11T03:54:35.923Z,19.49
2022-08-11T03:57:30.996Z,19.49
2022-08-11T04:00:24.977Z,19.49
2022-08-11T04:03:38.374Z,19.48
2022-08-11T04:06:38.894Z,19.46
2022-08-11T04:09:46.900Z,19.45
2022-08-11T04:12:36.507Z,19.43
2022-08-11T04:16:12.219Z,19.41
2022-08-11T04:19:14.079Z,19.40
2022-08-11T04:22:22.897Z,19.38
2022-08-11T04:25:15.799Z,19.34
2022-08-11T04:28:18.904Z,19.31
2022-08-11T04:31:10.124Z,19.26
2022-08-11T04:34:08.128Z,19.24
2022-08-11T04:37:05.710Z,19.21
2022-08-11T04:39:49.685Z,19.19
2022-08-11T04:43:17.511Z,19.20
2022-08-11T04:46:14.502Z,19.17
2022-08-11T04:49:24.265Z,19.12
2022-08-11T04:52:35.889Z,19.10
2022-08-11T04:55:50.991Z,19.08
2022-08-11T04:58:43.582Z,19.03
2022-08-11T05:01:44.019Z,19.02
2022-08-11T05:04:53.246Z,19.02
2022-08-11T05:08:05.817Z,19.00
2022-08-11T05:10:49.270Z,18.99
2022-08-11T05:13:46.922Z,18.97
2022-08-11T05:16:45.822Z,18.92
2022-08-11T05:19:36.822Z,18.89
2022-08-11T05:22:26.807Z,18.89
2022-08-11T05:26:42.807Z,18.87
2022-08-11T05:28:29.726Z,18.87
2022-08-11T05:31:26.416Z,18.87
2022-08-11T05:34:18.127Z,18.88
2022-08-11T05:36:49.382Z,18.91
2022-08-11T05:39:37.608Z,18.93
2022-08-11T05:42:30.255Z,18.92
2022-08-11T05:45:22.873Z,18.91
2022-08-11T05:48:10.695Z,18.91
2022-08-11T05:50:56.698Z,18.90
2022-08-11T05:53:46.393Z,18.89
2022-08-11T05:56:18.791Z,18.92
2022-08-11T05:58:51.199Z,18.94
2022-08-11T06:01:24.944Z,18.96
2022-08-11T06:04:16.304Z,18.97
2022-08-11T06:06:53.032Z,19.01
2022-08-11T06:09:30.583Z,19.05
2022-08-11T06:12:02.347Z,19.10
2022-08-11T06:14:31.711Z,19.14
2022-08-11T06:17:02.302Z,19.19
2022-08-11T06:19:37.342Z,19.24
2022-08-11T06:22:07.638Z,19.27
2022-08-11T06:24:36.738Z,19.30
2022-08-11T06:27:14.522Z,19.33
2022-08-11T06:29:54.913Z,19.37
2022-08-11T06:32:26.584Z,19.41
2022-08-11T06:35:06.133Z,19.46
2022-08-11T06:37:45.597Z,19.50
2022-08-11T06:40:27.427Z,19.55
2022-08-11T06:43:02.250Z,19.58
2022-08-11T06:45:36.378Z,19.62
2022-08-11T06:48:06.600Z,19.66
2022-08-11T06:50:53.751Z,19.70
2022-08-11T06:53:22.772Z,19.75
2022-08-11T06:56:09.068Z,19.79
2022-08-11T06:58:57.869Z,19.83
2022-08-11T07:01:38.767Z,19.87
2022-08-11T07:04:10.527Z,19.90
2022-08-11T07:07:17.299Z,19.94
2022-08-11T07:10:37.033Z,19.98
2022-08-11T07:13:44.607Z,20.01
2022-08-11T07:16:17.627Z,20.05
2022-08-11T07:19:07.679Z,20.09
2022-08-11T07:22:02.465Z,20.14
2022-08-11T07:25:05.294Z,20.20
2022-08-11T07:28:11.885Z,20.27
2022-08-11T07:30:42.658Z,20.34
2022-08-11T07:34:07.502Z,20.41
2022-08-11T07:36:05.148Z,20.48
2022-08-11T07:38:46.019Z,20.54
2022-08-11T07:41:19.649Z,20.61
2022-08-11T07:43:51.821Z,20.67
2022-08-11T07:46:38.544Z,20.75
2022-08-11T07:49:27.166Z,20.84
2022-08-11T07:52:13.240Z,20.93
2022-08-11T07:54:42.489Z,21.01
2022-08-11T07:58:14.993Z,21.11
2022-08-11T08:00:39.283Z,21.19
2022-08-11T08:03:25.471Z,21.28
2022-08-11T08:06:15.254Z,21.39
2022-08-11T08:09:17.978Z,21.52
2022-08-11T08:12:09.608Z,21.62
2022-08-11T08:14:56.638Z,21.73
2022-08-11T08:17:42.518Z,21.83
2022-08-11T08:20:16.266Z,21.97
2022-08-11T08:22:48.464Z,22.07
2022-08-11T08:25:18.135Z,22.18
2022-08-11T08:27:47.216Z,22.31
2022-08-11T08:30:34.618Z,22.42
2022-08-11T08:33:04.389Z,22.54
2022-08-11T08:35:33.308Z,22.68
2022-08-11T08:38:01.953Z,22.79
2022-08-11T08:40:30.145Z,22.88
2022-08-11T08:43:00.037Z,22.99
2022-08-11T08:45:29.796Z,23.09
2022-08-11T08:48:02.902Z,23.21
2022-08-11T08:50:48.376Z,23.33
2022-08-11T08:53:20.647Z,23.44
2022-08-11T08:55:51.837Z,23.55
2022-08-11T08:58:23.101Z,23.66
2022-08-11T09:00:54.586Z,23.77
2022-08-11T09:04:05.030Z,23.87
2022-08-11T09:06:16.179Z,24.02
2022-08-11T09:08:45.403Z,24.12
2022-08-11T09:11:32.705Z,24.23
2022-08-11T09:14:05.580Z,24.34
2022-08-11T09:16:39.064Z,24.41
2022-08-11T09:19:08.838Z,24.50
2022-08-11T09:21:48.188Z,24.59
2022-08-11T09:24:35.070Z,24.69
2022-08-11T09:27:07.663Z,24.78
2022-08-11T09:29:38.960Z,24.88
2022-08-11T09:32:09.031Z,24.95
2022-08-11T09:34:39.788Z,25.02
2022-08-11T09:37:54.541Z,25.08
2022-08-11T09:40:31.603Z,25.16
2022-08-11T09:43:20.989Z,25.16
2022-08-11T09:45:51.888Z,25.23
2022-08-11T09:48:23.006Z,25.29
2022-08-11T09:50:53.254Z,25.35
2022-08-11T09:53:36.255Z,25.43
2022-08-11T09:56:31.850Z,25.48
2022-08-11T09:59:00.544Z,25.54
2022-08-11T10:01:32.107Z,25.58
2022-08-11T10:04:05.193Z,25.65
2022-08-11T10:06:55.742Z,25.72
2022-08-11T10:09:26.224Z,25.80
2022-08-11T10:11:58.771Z,25.88
2022-08-11T10:14:46.409Z,25.97
2022-08-11T10:17:17.374Z,26.06
2022-08-11T10:20:05.312Z,26.14
2022-08-11T10:22:53.134Z,26.20
2022-08-11T10:25:41.072Z,26.24
2022-08-11T10:28:33.118Z,26.30
2022-08-11T10:31:18.232Z,26.37
2022-08-11T10:34:03.914Z,26.45
2022-08-11T10:36:35.313Z,26.59
2022-08-11T10:39:06.258Z,26.75
2022-08-11T10:42:07.556Z,26.87
2022-08-11T10:44:39.990Z,26.99
2022-08-11T10:47:26.505Z,27.06
2022-08-11T10:50:09.357Z,27.20
2022-08-11T10:52:57.656Z,27.31
2022-08-11T10:55:44.023Z,27.41
2022-08-11T10:58:30.799Z,27.52
2022-08-11T11:01:00.790Z,27.61
2022-08-11T11:03:32.210Z,27.68
2022-08-11T11:06:12.926Z,27.75
2022-08-11T11:09:04.477Z,27.83
2022-08-11T11:11:56.738Z,27.93
2022-08-11T11:14:49.906Z,28.00
2022-08-11T11:17:43.979Z,28.09
2022-08-11T11:20:36.452Z,28.18
2022-08-11T11:23:08.805Z,28.25
2022-08-11T11:26:10.656Z,28.34
2022-08-11T11:29:07.564Z,28.46
2022-08-11T11:31:50.434Z,28.55
2022-08-11T11:34:38.012Z,28.67
2022-08-11T11:37:22.112Z,28.79
2022-08-11T11:39:50.700Z,28.85
2022-08-11T11:42:21.714Z,28.92
2022-08-11T11:44:54.096Z,29.02
2022-08-11T11:47:24.871Z,29.18
2022-08-11T11:49:54.362Z,29.33
2022-08-11T11:52:23.844Z,29.50
2022-08-11T11:54:56.482Z,29.67
2022-08-11T11:57:58.989Z,29.86
2022-08-11T12:00:47.704Z,30.06
2022-08-11T12:03:16.137Z,30.27
2022-08-11T12:05:45.387Z,30.42
2022-08-11T12:08:17.144Z,30.58
2022-08-11T12:10:47.143Z,30.80
2022-08-11T12:13:35.085Z,31.04
2022-08-11T12:16:33.465Z,31.28
2022-08-11T12:18:55.188Z,31.53
2022-08-11T12:21:25.548Z,31.72
2022-08-11T12:24:13.428Z,31.87
2022-08-11T12:27:15.925Z,32.00
2022-08-11T12:29:54.490Z,32.10
2022-08-11T12:32:25.655Z,32.17
2022-08-11T12:34:57.035Z,32.34
2022-08-11T12:37:31.310Z,32.56
2022-08-11T12:40:42.224Z,32.72
2022-08-11T12:43:38.507Z,32.85
2022-08-11T12:46:11.226Z,33.11
2022-08-11T12:49:03.977Z,33.33
2022-08-11T12:52:11.466Z,33.51
2022-08-11T12:54:49.658Z,33.68
2022-08-11T12:57:38.078Z,33.82
2022-08-11T13:00:25.685Z,33.99
2022-08-11T13:03:13.976Z,34.14
2022-08-11T13:05:44.656Z,34.24
2022-08-11T13:08:15.229Z,34.31
2022-08-11T13:11:02.369Z,34.42
2022-08-11T13:13:52.554Z,34.58
2022-08-11T13:16:20.694Z,34.56
2022-08-11T13:18:51.220Z,34.57
2022-08-11T13:21:23.155Z,34.64
2022-08-11T13:24:00.588Z,34.76
2022-08-11T13:26:43.196Z,34.87
2022-08-11T13:29:19.222Z,34.95
2022-08-11T13:31:47.901Z,35.06
2022-08-11T13:34:19.807Z,35.14
2022-08-11T13:36:50.340Z,35.21
2022-08-11T13:39:19.580Z,35.31
2022-08-11T13:41:50.097Z,35.32
2022-08-11T13:44:24.800Z,35.37
2022-08-11T13:46:55.637Z,35.48
2022-08-11T13:49:26.401Z,35.56
2022-08-11T13:51:56.395Z,35.66
2022-08-11T13:54:26.758Z,35.69
2022-08-11T13:56:56.978Z,35.60
2022-08-11T13:59:30.376Z,35.54
2022-08-11T14:02:21.755Z,35.64
2022-08-11T14:04:56.597Z,35.84
2022-08-11T14:07:28.831Z,35.94
2022-08-11T14:09:59.972Z,36.06
2022-08-11T14:12:48.470Z,36.12
2022-08-11T14:15:21.545Z,36.26
2022-08-11T14:17:54.007Z,36.37
2022-08-11T14:20:38.501Z,36.46
2022-08-11T14:23:11.065Z,36.53
2022-08-11T14:26:02.687Z,36.60
2022-08-11T14:28:40.231Z,36.68
2022-08-11T14:31:13.239Z,36.70
2022-08-11T14:33:58.112Z,36.68
2022-08-11T14:36:33.904Z,36.74
2022-08-11T14:39:05.604Z,36.73
2022-08-11T14:42:10.831Z,36.77
2022-08-11T14:45:00.461Z,36.76
2022-08-11T14:47:31.724Z,36.73
2022-08-11T14:50:10.268Z,36.65
2022-08-11T14:52:47.028Z,36.60
2022-08-11T14:55:33.233Z,36.59
2022-08-11T14:58:02.878Z,36.64
2022-08-11T15:00:31.847Z,36.69
2022-08-11T15:03:13.699Z,36.69
2022-08-11T15:05:56.561Z,36.72
2022-08-11T15:08:48.100Z,36.68
2022-08-11T15:11:36.027Z,36.79
2022-08-11T15:14:07.302Z,36.82
2022-08-11T15:16:55.256Z,36.90
2022-08-11T15:19:40.583Z,37.04
2022-08-11T15:22:28.481Z,37.09
2022-08-11T15:24:59.655Z,37.16
2022-08-11T15:27:49.027Z,37.20
2022-08-11T15:30:35.515Z,37.25
2022-08-11T15:33:34.116Z,37.39
2022-08-11T15:36:22.694Z,37.58
2022-08-11T15:38:55.810Z,37.73
2022-08-11T15:41:58.338Z,37.83
2022-08-11T15:45:02.203Z,37.99
2022-08-11T15:47:37.638Z,37.96
2022-08-11T15:50:11.926Z,37.96
2022-08-11T15:52:51.033Z,38.14
2022-08-11T15:55:20.572Z,38.26
2022-08-11T15:58:11.917Z,38.40
2022-08-11T16:01:03.914Z,38.61
2022-08-11T16:04:08.100Z,38.69
2022-08-11T16:06:42.836Z,38.73
2022-08-11T16:09:19.146Z,38.88
2022-08-11T16:11:49.605Z,39.00
2022-08-11T16:14:38.274Z,39.05
2022-08-11T16:17:08.221Z,39.13
2022-08-11T16:19:38.032Z,39.23
2022-08-11T16:22:10.437Z,39.11
2022-08-11T16:27:04.683Z,39.04
2022-08-11T16:27:36.486Z,39.00
2022-08-11T16:30:07.673Z,38.95
2022-08-11T16:32:37.975Z,38.92
2022-08-11T16:35:27.060Z,38.87
2022-08-11T16:38:15.582Z,38.96
2022-08-11T16:40:45.150Z,39.02
2022-08-11T16:43:38.396Z,39.03
2022-08-11T16:46:32.241Z,39.03
2022-08-11T16:49:01.540Z,39.13
2022-08-11T16:51:29.757Z,39.24
2022-08-11T16:54:05.351Z,39.28
2022-08-11T16:56:38.246Z,39.35
2022-08-11T16:59:16.715Z,39.44
2022-08-11T17:01:53.391Z,39.48
2022-08-11T17:04:56.484Z,39.42
2022-08-11T17:07:43.902Z,39.36
2022-08-11T17:10:50.764Z,39.36
2022-08-11T17:13:30.206Z,39.37
2022-08-11T17:16:08.182Z,39.45
2022-08-11T17:18:44.220Z,39.53
2022-08-11T17:21:26.341Z,39.54
2022-08-11T17:23:57.168Z,39.57
2022-08-11T17:26:48.439Z,39.68
2022-08-11T17:29:18.407Z,39.81
2022-08-11T17:32:05.527Z,39.91
2022-08-11T17:34:53.518Z,39.96
2022-08-11T17:37:22.822Z,40.03
2022-08-11T17:39:51.764Z,39.97
2022-08-11T17:42:38.481Z,39.93
2022-08-11T17:45:27.980Z,40.00
2022-08-11T17:48:14.867Z,40.10
2022-08-11T17:50:44.811Z,40.18
2022-08-11T17:53:31.262Z,40.27
2022-08-11T17:56:18.824Z,40.33
2022-08-11T17:59:11.185Z,40.29
2022-08-11T18:01:42.041Z,40.31
2022-08-11T18:04:14.938Z,40.25
2022-08-11T18:06:47.652Z,40.19
2022-08-11T18:09:36.104Z,40.10
2022-08-11T18:12:24.824Z,40.14
2022-08-11T18:15:13.779Z,40.10
2022-08-11T18:18:00.493Z,40.10
2022-08-11T18:20:46.925Z,39.58
2022-08-11T18:23:41.673Z,38.57
2022-08-11T18:26:38.050Z,37.48
2022-08-11T18:29:25.882Z,36.61
2022-08-11T18:32:21.211Z,35.90
2022-08-11T18:35:10.652Z,35.22
2022-08-11T18:37:58.083Z,34.62
2022-08-11T18:40:47.077Z,34.08
2022-08-11T18:43:35.615Z,33.59
2022-08-11T18:46:24.883Z,33.19
2022-08-11T18:49:15.474Z,32.83
2022-08-11T18:52:06.371Z,32.50
2022-08-11T18:54:55.236Z,32.19
2022-08-11T18:57:54.179Z,31.93
2022-08-11T19:00:40.988Z,31.70
2022-08-11T19:03:28.671Z,31.49
2022-08-11T19:06:39.743Z,31.30
2022-08-11T19:09:27.137Z,31.11
2022-08-11T19:12:14.485Z,30.94
2022-08-11T19:15:03.402Z,30.79
2022-08-11T19:17:50.178Z,30.64
2022-08-11T19:20:38.528Z,30.52
2022-08-11T19:23:26.160Z,30.39
2022-08-11T19:26:12.723Z,30.29
2022-08-11T19:29:00.549Z,30.18
2022-08-11T19:31:48.057Z,30.07
2022-08-11T19:34:35.756Z,29.97
2022-08-11T19:37:25.041Z,29.89
2022-08-11T19:40:12.377Z,29.79
2022-08-11T19:43:00.068Z,29.66
2022-08-11T19:45:50.571Z,29.53
2022-08-11T19:48:41.084Z,29.32
2022-08-11T19:51:28.799Z,29.06
2022-08-11T19:54:16.088Z,28.82
2022-08-11T19:57:03.018Z,28.57
2022-08-11T19:59:50.146Z,28.39
2022-08-11T20:02:35.905Z,28.21
2022-08-11T20:05:23.153Z,28.04
2022-08-11T20:08:09.462Z,27.93
2022-08-11T20:10:55.685Z,27.82
2022-08-11T20:13:43.643Z,27.71
2022-08-11T20:16:31.216Z,27.63
2022-08-11T20:19:18.436Z,27.58
2022-08-11T20:22:08.676Z,27.55
2022-08-11T20:24:57.457Z,27.52
2022-08-11T20:27:44.547Z,27.50
2022-08-11T20:30:31.077Z,27.46
2022-08-11T20:33:16.892Z,27.42
2022-08-11T20:36:03.819Z,27.42
2022-08-11T20:38:51.843Z,27.40
2022-08-11T20:41:58.371Z,27.39
2022-08-11T20:44:45.124Z,27.37
2022-08-11T20:47:33.272Z,27.27
2022-08-11T20:50:39.818Z,27.15
2022-08-11T20:53:26.203Z,27.00
2022-08-11T20:56:17.234Z,26.87
2022-08-11T20:59:21.834Z,26.72
2022-08-11T21:02:10.095Z,26.55
2022-08-11T21:04:57.506Z,26.39
2022-08-11T21:07:50.292Z,26.27
2022-08-11T21:10:46.756Z,26.21
2022-08-11T21:13:36.958Z,26.18
2022-08-11T21:16:27.049Z,26.15
2022-08-11T21:20:01.598Z,26.13
2022-08-11T21:22:28.170Z,26.10
2022-08-11T21:25:16.246Z,26.07
2022-08-11T21:28:03.429Z,26.04
2022-08-11T21:30:51.395Z,26.01
2022-08-11T21:33:45.912Z,25.98
2022-08-11T21:36:33.193Z,25.95
2022-08-11T21:39:20.485Z,25.91
2022-08-11T21:42:28.261Z,25.74
2022-08-11T21:45:17.105Z,25.65
2022-08-11T21:48:04.468Z,25.62
2022-08-11T21:50:49.926Z,25.60
2022-08-11T21:53:36.627Z,25.57
2022-08-11T21:56:27.271Z,25.56
2022-08-11T21:59:15.289Z,25.53
2022-08-11T22:02:01.743Z,25.48
2022-08-11T22:04:49.691Z,25.44
2022-08-11T22:07:39.403Z,25.41
2022-08-11T22:10:40.342Z,25.40
2022-08-11T22:13:27.315Z,25.35
2022-08-11T22:16:13.004Z,25.32
2022-08-11T22:18:59.217Z,25.27
2022-08-11T22:22:01.445Z,25.20
2022-08-11T22:24:51.238Z,25.16
2022-08-11T22:27:36.701Z,25.14
2022-08-11T22:30:24.174Z,25.09
2022-08-11T22:33:10.345Z,25.04
2022-08-11T22:35:58.344Z,24.95
2022-08-11T22:38:46.346Z,24.85
2022-08-11T22:41:32.548Z,24.75
2022-08-11T22:44:17.978Z,24.67
2022-08-11T22:47:04.578Z,24.55
2022-08-11T22:49:58.156Z,24.49
2022-08-11T22:52:45.612Z,24.45
2022-08-11T22:55:33.125Z,24.41
2022-08-11T22:58:20.733Z,24.37
2022-08-11T23:01:07.481Z,24.31
2022-08-11T23:03:53.845Z,24.23
2022-08-11T23:06:40.532Z,24.17
2022-08-11T23:09:27.476Z,24.14
2022-08-11T23:12:16.170Z,24.08
2022-08-11T23:15:02.557Z,24.05
2022-08-11T23:17:48.878Z,24.03
2022-08-11T23:20:46.707Z,23.97
2022-08-11T23:23:34.009Z,23.94
2022-08-11T23:26:21.047Z,23.91
2022-08-11T23:29:08.096Z,23.88
2022-08-11T23:31:54.767Z,23.87
2022-08-11T23:35:04.021Z,23.82
2022-08-11T23:37:49.272Z,23.80
2022-08-11T23:40:34.724Z,23.77
2022-08-11T23:43:20.391Z,23.74
2022-08-11T23:46:07.449Z,23.68
2022-08-11T23:48:54.362Z,23.60
2022-08-11T23:51:41.619Z,23.47
2022-08-11T23:54:28.238Z,23.36
2022-08-11T23:57:14.066Z,23.28
2022-08-11T23:59:59.873Z,23.24
